sensor_id;sensor_type;location;lat;lon;timestamp;P1;durP1;ratioP1;P2;durP2;ratioP2
54454;SDS011;40364;52.270;10.546;2023-05-07T00:01:29;26.70;;;14.70;;
54454;SDS011;40364;52.270;10.546;2023-05-07T00:03:56;26.35;;;14.55;;
54454;SDS011;40364;52.270;10.546;2023-05-07T00:06:23;24.42;;;13.60;;
54454;SDS011;40364;52.270;10.546;2023-05-07T00:08:51;27.45;;;14.52;;
54454;SDS011;40364;52.270;10.546;2023-05-07T00:11:17;26.58;;;15.02;;
54454;SDS011;40364;52.270;10.546;2023-05-07T00:13:44;25.63;;;13.80;;
54454;SDS011;40364;52.270;10.546;2023-05-07T00:16:10;23.23;;;13.60;;
54454;SDS011;40364;52.270;10.546;2023-05-07T00:18:38;24.65;;;14.43;;
54454;SDS011;40364;52.270;10.546;2023-05-07T00:21:05;27.00;;;16.08;;
54454;SDS011;40364;52.270;10.546;2023-05-07T00:23:32;25.23;;;13.80;;
54454;SDS011;40364;52.270;10.546;2023-05-07T00:25:58;28.25;;;15.07;;
54454;SDS011;40364;52.270;10.546;2023-05-07T00:28:25;28.42;;;14.23;;
54454;SDS011;40364;52.270;10.546;2023-05-07T00:30:52;24.23;;;13.18;;
54454;SDS011;40364;52.270;10.546;2023-05-07T00:33:18;25.02;;;12.32;;
54454;SDS011;40364;52.270;10.546;2023-05-07T00:35:47;18.33;;;10.80;;
54454;SDS011;40364;52.270;10.546;2023-05-07T00:38:14;20.15;;;11.20;;
54454;SDS011;40364;52.270;10.546;2023-05-07T00:40:40;18.58;;;10.98;;
54454;SDS011;40364;52.270;10.546;2023-05-07T00:43:07;18.73;;;9.70;;
54454;SDS011;40364;52.270;10.546;2023-05-07T00:45:34;18.65;;;9.45;;
54454;SDS011;40364;52.270;10.546;2023-05-07T00:48:00;16.13;;;8.88;;
54454;SDS011;40364;52.270;10.546;2023-05-07T00:50:28;17.15;;;10.13;;
54454;SDS011;40364;52.270;10.546;2023-05-07T00:52:57;18.70;;;9.82;;
54454;SDS011;40364;52.270;10.546;2023-05-07T00:55:25;18.67;;;10.80;;
54454;SDS011;40364;52.270;10.546;2023-05-07T00:57:52;16.90;;;9.65;;
54454;SDS011;40364;52.270;10.546;2023-05-07T01:00:18;22.00;;;11.20;;
54454;SDS011;40364;52.270;10.546;2023-05-07T01:02:46;19.20;;;10.68;;
54454;SDS011;40364;52.270;10.546;2023-05-07T01:05:13;22.00;;;10.77;;
54454;SDS011;40364;52.270;10.546;2023-05-07T01:07:41;17.13;;;10.20;;
54454;SDS011;40364;52.270;10.546;2023-05-07T01:10:10;18.75;;;10.05;;
54454;SDS011;40364;52.270;10.546;2023-05-07T01:12:38;19.63;;;10.05;;
54454;SDS011;40364;52.270;10.546;2023-05-07T01:15:07;16.50;;;9.35;;
54454;SDS011;40364;52.270;10.546;2023-05-07T01:17:35;16.23;;;9.23;;
54454;SDS011;40364;52.270;10.546;2023-05-07T01:20:02;17.15;;;9.18;;
54454;SDS011;40364;52.270;10.546;2023-05-07T01:22:33;17.58;;;9.23;;
54454;SDS011;40364;52.270;10.546;2023-05-07T01:25:01;15.57;;;8.70;;
54454;SDS011;40364;52.270;10.546;2023-05-07T01:27:28;18.38;;;9.00;;
54454;SDS011;40364;52.270;10.546;2023-05-07T01:29:55;15.98;;;9.00;;
54454;SDS011;40364;52.270;10.546;2023-05-07T01:32:23;15.10;;;8.40;;
54454;SDS011;40364;52.270;10.546;2023-05-07T01:34:55;15.50;;;8.85;;
54454;SDS011;40364;52.270;10.546;2023-05-07T01:37:23;19.33;;;9.02;;
54454;SDS011;40364;52.270;10.546;2023-05-07T01:39:52;19.05;;;9.65;;
54454;SDS011;40364;52.270;10.546;2023-05-07T01:42:20;14.07;;;8.15;;
54454;SDS011;40364;52.270;10.546;2023-05-07T01:44:47;15.32;;;8.45;;
54454;SDS011;40364;52.270;10.546;2023-05-07T01:47:14;14.55;;;8.60;;
54454;SDS011;40364;52.270;10.546;2023-05-07T01:49:41;13.23;;;7.43;;
54454;SDS011;40364;52.270;10.546;2023-05-07T01:52:09;14.93;;;8.68;;
54454;SDS011;40364;52.270;10.546;2023-05-07T01:54:36;14.40;;;7.47;;
54454;SDS011;40364;52.270;10.546;2023-05-07T01:57:04;13.45;;;7.45;;
54454;SDS011;40364;52.270;10.546;2023-05-07T01:59:31;12.65;;;7.88;;
54454;SDS011;40364;52.270;10.546;2023-05-07T02:01:57;12.73;;;7.97;;
54454;SDS011;40364;52.270;10.546;2023-05-07T02:04:24;15.60;;;8.73;;
54454;SDS011;40364;52.270;10.546;2023-05-07T02:06:51;13.90;;;7.88;;
54454;SDS011;40364;52.270;10.546;2023-05-07T02:09:18;13.90;;;8.02;;
54454;SDS011;40364;52.270;10.546;2023-05-07T02:11:45;12.80;;;7.93;;
54454;SDS011;40364;52.270;10.546;2023-05-07T02:14:13;13.90;;;7.85;;
54454;SDS011;40364;52.270;10.546;2023-05-07T02:16:40;12.35;;;8.07;;
54454;SDS011;40364;52.270;10.546;2023-05-07T02:19:06;15.07;;;7.90;;
54454;SDS011;40364;52.270;10.546;2023-05-07T02:21:33;12.43;;;7.47;;
54454;SDS011;40364;52.270;10.546;2023-05-07T02:24:00;13.73;;;7.65;;
54454;SDS011;40364;52.270;10.546;2023-05-07T02:26:26;12.10;;;7.15;;
54454;SDS011;40364;52.270;10.546;2023-05-07T02:28:53;13.65;;;7.80;;
54454;SDS011;40364;52.270;10.546;2023-05-07T02:31:21;13.40;;;7.60;;
54454;SDS011;40364;52.270;10.546;2023-05-07T02:33:47;12.25;;;7.85;;
54454;SDS011;40364;52.270;10.546;2023-05-07T02:36:14;12.70;;;7.53;;
54454;SDS011;40364;52.270;10.546;2023-05-07T02:38:41;12.40;;;7.03;;
54454;SDS011;40364;52.270;10.546;2023-05-07T02:41:07;12.48;;;6.82;;
54454;SDS011;40364;52.270;10.546;2023-05-07T02:43:34;10.73;;;6.97;;
54454;SDS011;40364;52.270;10.546;2023-05-07T02:46:01;12.05;;;7.28;;
54454;SDS011;40364;52.270;10.546;2023-05-07T02:48:30;16.83;;;7.68;;
54454;SDS011;40364;52.270;10.546;2023-05-07T02:50:56;15.23;;;7.25;;
54454;SDS011;40364;52.270;10.546;2023-05-07T02:53:23;13.25;;;8.07;;
54454;SDS011;40364;52.270;10.546;2023-05-07T02:55:51;13.05;;;7.75;;
54454;SDS011;40364;52.270;10.546;2023-05-07T02:58:17;10.63;;;6.82;;
54454;SDS011;40364;52.270;10.546;2023-05-07T03:00:44;12.40;;;7.00;;
54454;SDS011;40364;52.270;10.546;2023-05-07T03:03:11;11.38;;;6.97;;
54454;SDS011;40364;52.270;10.546;2023-05-07T03:05:39;10.63;;;6.88;;
54454;SDS011;40364;52.270;10.546;2023-05-07T03:08:06;12.55;;;7.00;;
54454;SDS011;40364;52.270;10.546;2023-05-07T03:10:33;11.35;;;6.50;;
54454;SDS011;40364;52.270;10.546;2023-05-07T03:13:00;11.55;;;6.47;;
54454;SDS011;40364;52.270;10.546;2023-05-07T03:15:27;13.40;;;6.97;;
54454;SDS011;40364;52.270;10.546;2023-05-07T03:17:53;10.48;;;6.50;;
54454;SDS011;40364;52.270;10.546;2023-05-07T03:20:20;13.02;;;7.75;;
54454;SDS011;40364;52.270;10.546;2023-05-07T03:22:48;12.73;;;7.68;;
54454;SDS011;40364;52.270;10.546;2023-05-07T03:25:15;12.07;;;7.45;;
54454;SDS011;40364;52.270;10.546;2023-05-07T03:27:41;14.07;;;7.72;;
54454;SDS011;40364;52.270;10.546;2023-05-07T03:30:08;13.57;;;7.50;;
54454;SDS011;40364;52.270;10.546;2023-05-07T03:32:36;11.77;;;7.10;;
54454;SDS011;40364;52.270;10.546;2023-05-07T03:35:02;11.20;;;7.20;;
54454;SDS011;40364;52.270;10.546;2023-05-07T03:37:29;11.73;;;7.00;;
54454;SDS011;40364;52.270;10.546;2023-05-07T03:39:57;11.40;;;6.85;;
54454;SDS011;40364;52.270;10.546;2023-05-07T03:42:24;12.48;;;6.93;;
54454;SDS011;40364;52.270;10.546;2023-05-07T03:44:51;13.07;;;7.90;;
54454;SDS011;40364;52.270;10.546;2023-05-07T03:47:17;12.38;;;7.10;;
54454;SDS011;40364;52.270;10.546;2023-05-07T03:49:44;15.88;;;8.48;;
54454;SDS011;40364;52.270;10.546;2023-05-07T03:52:10;15.63;;;7.82;;
54454;SDS011;40364;52.270;10.546;2023-05-07T03:54:37;9.95;;;6.88;;
54454;SDS011;40364;52.270;10.546;2023-05-07T03:57:05;11.10;;;6.90;;
54454;SDS011;40364;52.270;10.546;2023-05-07T03:59:31;10.77;;;7.10;;
54454;SDS011;40364;52.270;10.546;2023-05-07T04:01:58;9.85;;;6.65;;
54454;SDS011;40364;52.270;10.546;2023-05-07T04:04:24;9.93;;;6.80;;
54454;SDS011;40364;52.270;10.546;2023-05-07T04:06:51;12.30;;;7.90;;
54454;SDS011;40364;52.270;10.546;2023-05-07T04:09:18;8.90;;;5.80;;
54454;SDS011;40364;52.270;10.546;2023-05-07T04:11:45;9.00;;;6.20;;
54454;SDS011;40364;52.270;10.546;2023-05-07T04:14:12;10.63;;;6.10;;
54454;SDS011;40364;52.270;10.546;2023-05-07T04:16:39;9.02;;;6.13;;
54454;SDS011;40364;52.270;10.546;2023-05-07T04:19:05;9.10;;;6.32;;
54454;SDS011;40364;52.270;10.546;2023-05-07T04:21:32;9.35;;;6.18;;
54454;SDS011;40364;52.270;10.546;2023-05-07T04:23:59;8.45;;;5.80;;
54454;SDS011;40364;52.270;10.546;2023-05-07T04:26:25;8.68;;;6.15;;
54454;SDS011;40364;52.270;10.546;2023-05-07T04:28:53;9.23;;;5.97;;
54454;SDS011;40364;52.270;10.546;2023-05-07T04:31:21;8.60;;;6.20;;
54454;SDS011;40364;52.270;10.546;2023-05-07T04:33:47;10.35;;;6.93;;
54454;SDS011;40364;52.270;10.546;2023-05-07T04:36:15;9.15;;;6.35;;
54454;SDS011;40364;52.270;10.546;2023-05-07T04:38:42;9.30;;;5.43;;
54454;SDS011;40364;52.270;10.546;2023-05-07T04:41:08;10.73;;;6.18;;
54454;SDS011;40364;52.270;10.546;2023-05-07T04:43:36;11.57;;;6.95;;
54454;SDS011;40364;52.270;10.546;2023-05-07T04:46:02;10.43;;;6.35;;
54454;SDS011;40364;52.270;10.546;2023-05-07T04:48:31;9.95;;;6.90;;
54454;SDS011;40364;52.270;10.546;2023-05-07T04:50:57;9.68;;;6.40;;
54454;SDS011;40364;52.270;10.546;2023-05-07T04:53:24;9.57;;;6.28;;
54454;SDS011;40364;52.270;10.546;2023-05-07T04:55:54;11.60;;;6.20;;
54454;SDS011;40364;52.270;10.546;2023-05-07T04:58:21;8.82;;;6.18;;
54454;SDS011;40364;52.270;10.546;2023-05-07T05:00:48;9.73;;;5.63;;
54454;SDS011;40364;52.270;10.546;2023-05-07T05:03:16;9.80;;;5.80;;
54454;SDS011;40364;52.270;10.546;2023-05-07T05:05:44;8.57;;;5.55;;
54454;SDS011;40364;52.270;10.546;2023-05-07T05:08:10;7.25;;;5.18;;
54454;SDS011;40364;52.270;10.546;2023-05-07T05:10:37;6.20;;;4.78;;
54454;SDS011;40364;52.270;10.546;2023-05-07T05:13:05;7.50;;;4.60;;
54454;SDS011;40364;52.270;10.546;2023-05-07T05:15:33;8.50;;;5.55;;
54454;SDS011;40364;52.270;10.546;2023-05-07T05:18:01;7.88;;;5.47;;
54454;SDS011;40364;52.270;10.546;2023-05-07T05:20:30;7.53;;;5.00;;
54454;SDS011;40364;52.270;10.546;2023-05-07T05:22:58;8.10;;;5.30;;
54454;SDS011;40364;52.270;10.546;2023-05-07T05:25:24;7.60;;;5.35;;
54454;SDS011;40364;52.270;10.546;2023-05-07T05:27:51;10.57;;;6.07;;
54454;SDS011;40364;52.270;10.546;2023-05-07T05:30:18;9.88;;;5.63;;
54454;SDS011;40364;52.270;10.546;2023-05-07T05:32:44;6.72;;;5.47;;
54454;SDS011;40364;52.270;10.546;2023-05-07T05:35:11;33.47;;;6.53;;
54454;SDS011;40364;52.270;10.546;2023-05-07T05:37:38;7.55;;;5.82;;
54454;SDS011;40364;52.270;10.546;2023-05-07T05:40:07;8.23;;;5.45;;
54454;SDS011;40364;52.270;10.546;2023-05-07T05:42:34;7.55;;;5.50;;
54454;SDS011;40364;52.270;10.546;2023-05-07T05:45:01;9.18;;;6.13;;
54454;SDS011;40364;52.270;10.546;2023-05-07T05:47:30;9.98;;;7.07;;
54454;SDS011;40364;52.270;10.546;2023-05-07T05:49:57;9.82;;;6.30;;
54454;SDS011;40364;52.270;10.546;2023-05-07T05:52:25;10.93;;;6.85;;
54454;SDS011;40364;52.270;10.546;2023-05-07T05:54:51;10.90;;;6.65;;
54454;SDS011;40364;52.270;10.546;2023-05-07T05:57:23;11.00;;;7.03;;
54454;SDS011;40364;52.270;10.546;2023-05-07T05:59:52;9.43;;;6.80;;
54454;SDS011;40364;52.270;10.546;2023-05-07T06:02:19;9.18;;;6.93;;
54454;SDS011;40364;52.270;10.546;2023-05-07T06:04:46;11.30;;;7.53;;
54454;SDS011;40364;52.270;10.546;2023-05-07T06:07:14;10.90;;;7.10;;
54454;SDS011;40364;52.270;10.546;2023-05-07T06:09:41;9.70;;;7.18;;
54454;SDS011;40364;52.270;10.546;2023-05-07T06:12:08;12.02;;;7.80;;
54454;SDS011;40364;52.270;10.546;2023-05-07T06:14:35;12.02;;;7.50;;
54454;SDS011;40364;52.270;10.546;2023-05-07T06:17:05;9.68;;;6.85;;
54454;SDS011;40364;52.270;10.546;2023-05-07T06:19:33;12.98;;;6.90;;
54454;SDS011;40364;52.270;10.546;2023-05-07T06:22:00;11.27;;;7.07;;
54454;SDS011;40364;52.270;10.546;2023-05-07T06:24:27;11.52;;;7.32;;
54454;SDS011;40364;52.270;10.546;2023-05-07T06:26:54;11.32;;;7.57;;
54454;SDS011;40364;52.270;10.546;2023-05-07T06:29:21;9.85;;;6.57;;
54454;SDS011;40364;52.270;10.546;2023-05-07T06:31:49;10.13;;;7.13;;
54454;SDS011;40364;52.270;10.546;2023-05-07T06:34:16;10.02;;;6.40;;
54454;SDS011;40364;52.270;10.546;2023-05-07T06:36:42;8.95;;;6.50;;
54454;SDS011;40364;52.270;10.546;2023-05-07T06:39:09;10.68;;;6.18;;
54454;SDS011;40364;52.270;10.546;2023-05-07T06:41:36;10.25;;;6.00;;
54454;SDS011;40364;52.270;10.546;2023-05-07T06:44:03;11.98;;;6.57;;
54454;SDS011;40364;52.270;10.546;2023-05-07T06:46:30;7.53;;;5.22;;
54454;SDS011;40364;52.270;10.546;2023-05-07T06:48:59;8.93;;;6.10;;
54454;SDS011;40364;52.270;10.546;2023-05-07T06:51:26;8.77;;;6.10;;
54454;SDS011;40364;52.270;10.546;2023-05-07T06:53:52;7.50;;;5.55;;
54454;SDS011;40364;52.270;10.546;2023-05-07T06:56:19;8.23;;;5.57;;
54454;SDS011;40364;52.270;10.546;2023-05-07T06:58:46;7.38;;;4.75;;
54454;SDS011;40364;52.270;10.546;2023-05-07T07:01:12;8.13;;;5.45;;
54454;SDS011;40364;52.270;10.546;2023-05-07T07:03:40;7.72;;;5.40;;
54454;SDS011;40364;52.270;10.546;2023-05-07T07:06:09;8.13;;;5.43;;
54454;SDS011;40364;52.270;10.546;2023-05-07T07:08:38;7.97;;;5.00;;
54454;SDS011;40364;52.270;10.546;2023-05-07T07:11:07;6.78;;;4.93;;
54454;SDS011;40364;52.270;10.546;2023-05-07T07:13:34;9.15;;;5.55;;
54454;SDS011;40364;52.270;10.546;2023-05-07T07:16:01;9.27;;;5.70;;
54454;SDS011;40364;52.270;10.546;2023-05-07T07:18:30;8.77;;;5.50;;
54454;SDS011;40364;52.270;10.546;2023-05-07T07:20:57;9.52;;;5.75;;
54454;SDS011;40364;52.270;10.546;2023-05-07T07:23:26;9.05;;;5.60;;
54454;SDS011;40364;52.270;10.546;2023-05-07T07:25:54;9.07;;;5.72;;
54454;SDS011;40364;52.270;10.546;2023-05-07T07:28:22;9.48;;;5.93;;
54454;SDS011;40364;52.270;10.546;2023-05-07T07:30:48;10.98;;;6.20;;
54454;SDS011;40364;52.270;10.546;2023-05-07T07:33:15;9.57;;;5.88;;
54454;SDS011;40364;52.270;10.546;2023-05-07T07:35:42;8.13;;;5.30;;
54454;SDS011;40364;52.270;10.546;2023-05-07T07:38:10;9.23;;;5.72;;
54454;SDS011;40364;52.270;10.546;2023-05-07T07:40:38;8.35;;;5.70;;
54454;SDS011;40364;52.270;10.546;2023-05-07T07:43:06;9.25;;;6.40;;
54454;SDS011;40364;52.270;10.546;2023-05-07T07:45:48;8.45;;;5.47;;
54454;SDS011;40364;52.270;10.546;2023-05-07T07:48:20;7.57;;;5.07;;
54454;SDS011;40364;52.270;10.546;2023-05-07T07:50:50;8.00;;;5.60;;
54454;SDS011;40364;52.270;10.546;2023-05-07T07:53:17;9.27;;;5.10;;
54454;SDS011;40364;52.270;10.546;2023-05-07T07:55:46;8.75;;;5.22;;
54454;SDS011;40364;52.270;10.546;2023-05-07T07:58:12;8.68;;;5.53;;
54454;SDS011;40364;52.270;10.546;2023-05-07T08:00:39;7.95;;;5.93;;
54454;SDS011;40364;52.270;10.546;2023-05-07T08:03:06;7.97;;;5.22;;
54454;SDS011;40364;52.270;10.546;2023-05-07T08:05:36;8.73;;;5.53;;
54454;SDS011;40364;52.270;10.546;2023-05-07T08:08:04;7.93;;;5.55;;
54454;SDS011;40364;52.270;10.546;2023-05-07T08:10:30;9.02;;;5.90;;
54454;SDS011;40364;52.270;10.546;2023-05-07T08:13:03;8.45;;;5.60;;
54454;SDS011;40364;52.270;10.546;2023-05-07T08:15:30;9.05;;;5.88;;
54454;SDS011;40364;52.270;10.546;2023-05-07T08:17:57;9.32;;;6.03;;
54454;SDS011;40364;52.270;10.546;2023-05-07T08:20:25;8.32;;;6.07;;
54454;SDS011;40364;52.270;10.546;2023-05-07T08:22:52;10.32;;;6.80;;
54454;SDS011;40364;52.270;10.546;2023-05-07T08:25:18;9.05;;;6.07;;
54454;SDS011;40364;52.270;10.546;2023-05-07T08:27:46;11.57;;;7.10;;
54454;SDS011;40364;52.270;10.546;2023-05-07T08:30:16;8.93;;;6.80;;
54454;SDS011;40364;52.270;10.546;2023-05-07T08:32:42;11.40;;;7.68;;
54454;SDS011;40364;52.270;10.546;2023-05-07T08:35:09;9.95;;;6.78;;
54454;SDS011;40364;52.270;10.546;2023-05-07T08:37:36;9.20;;;6.55;;
54454;SDS011;40364;52.270;10.546;2023-05-07T08:40:07;10.00;;;6.50;;
54454;SDS011;40364;52.270;10.546;2023-05-07T08:42:36;9.63;;;6.60;;
54454;SDS011;40364;52.270;10.546;2023-05-07T08:45:04;8.85;;;6.15;;
54454;SDS011;40364;52.270;10.546;2023-05-07T08:47:49;9.38;;;6.28;;
54454;SDS011;40364;52.270;10.546;2023-05-07T08:50:18;8.00;;;5.93;;
54454;SDS011;40364;52.270;10.546;2023-05-07T08:52:47;8.80;;;6.00;;
54454;SDS011;40364;52.270;10.546;2023-05-07T08:55:13;7.00;;;5.47;;
54454;SDS011;40364;52.270;10.546;2023-05-07T08:57:40;10.65;;;6.13;;
54454;SDS011;40364;52.270;10.546;2023-05-07T09:00:07;7.50;;;5.90;;
54454;SDS011;40364;52.270;10.546;2023-05-07T09:02:35;9.70;;;6.47;;
54454;SDS011;40364;52.270;10.546;2023-05-07T09:05:03;8.10;;;5.82;;
54454;SDS011;40364;52.270;10.546;2023-05-07T09:07:30;9.43;;;6.03;;
54454;SDS011;40364;52.270;10.546;2023-05-07T09:09:57;10.25;;;6.05;;
54454;SDS011;40364;52.270;10.546;2023-05-07T09:12:24;11.38;;;6.90;;
54454;SDS011;40364;52.270;10.546;2023-05-07T09:14:51;8.75;;;6.07;;
54454;SDS011;40364;52.270;10.546;2023-05-07T09:17:17;9.52;;;6.50;;
54454;SDS011;40364;52.270;10.546;2023-05-07T09:19:47;9.50;;;6.30;;
54454;SDS011;40364;52.270;10.546;2023-05-07T09:22:19;10.77;;;6.05;;
54454;SDS011;40364;52.270;10.546;2023-05-07T09:24:47;7.00;;;5.40;;
54454;SDS011;40364;52.270;10.546;2023-05-07T09:27:14;6.90;;;5.40;;
54454;SDS011;40364;52.270;10.546;2023-05-07T09:29:40;8.77;;;6.03;;
54454;SDS011;40364;52.270;10.546;2023-05-07T09:32:07;7.45;;;5.18;;
54454;SDS011;40364;52.270;10.546;2023-05-07T09:34:34;7.18;;;5.15;;
54454;SDS011;40364;52.270;10.546;2023-05-07T09:37:01;8.02;;;5.38;;
54454;SDS011;40364;52.270;10.546;2023-05-07T09:39:39;8.13;;;5.15;;
54454;SDS011;40364;52.270;10.546;2023-05-07T09:42:07;8.07;;;4.78;;
54454;SDS011;40364;52.270;10.546;2023-05-07T09:44:33;7.25;;;4.70;;
54454;SDS011;40364;52.270;10.546;2023-05-07T09:47:01;6.65;;;4.45;;
54454;SDS011;40364;52.270;10.546;2023-05-07T09:49:30;6.05;;;4.28;;
54454;SDS011;40364;52.270;10.546;2023-05-07T09:52:01;5.80;;;4.60;;
54454;SDS011;40364;52.270;10.546;2023-05-07T09:54:29;5.80;;;4.53;;
54454;SDS011;40364;52.270;10.546;2023-05-07T09:57:00;7.13;;;4.93;;
54454;SDS011;40364;52.270;10.546;2023-05-07T09:59:28;5.60;;;4.35;;
54454;SDS011;40364;52.270;10.546;2023-05-07T10:01:57;4.75;;;3.78;;
54454;SDS011;40364;52.270;10.546;2023-05-07T10:04:24;8.65;;;4.07;;
54454;SDS011;40364;52.270;10.546;2023-05-07T10:06:52;5.43;;;4.18;;
54454;SDS011;40364;52.270;10.546;2023-05-07T10:09:20;5.32;;;3.33;;
54454;SDS011;40364;52.270;10.546;2023-05-07T10:11:47;8.00;;;3.88;;
54454;SDS011;40364;52.270;10.546;2023-05-07T10:14:16;5.45;;;4.10;;
54454;SDS011;40364;52.270;10.546;2023-05-07T10:16:44;5.65;;;3.55;;
54454;SDS011;40364;52.270;10.546;2023-05-07T10:19:10;4.47;;;3.72;;
54454;SDS011;40364;52.270;10.546;2023-05-07T10:21:39;5.18;;;4.07;;
54454;SDS011;40364;52.270;10.546;2023-05-07T10:24:10;5.10;;;3.88;;
54454;SDS011;40364;52.270;10.546;2023-05-07T10:26:43;8.68;;;4.65;;
54454;SDS011;40364;52.270;10.546;2023-05-07T10:29:14;5.57;;;4.70;;
54454;SDS011;40364;52.270;10.546;2023-05-07T10:34:20;6.53;;;4.85;;
54454;SDS011;40364;52.270;10.546;2023-05-07T10:36:51;6.82;;;4.88;;
54454;SDS011;40364;52.270;10.546;2023-05-07T10:39:20;6.65;;;4.47;;
54454;SDS011;40364;52.270;10.546;2023-05-07T10:41:47;6.47;;;4.93;;
54454;SDS011;40364;52.270;10.546;2023-05-07T10:44:25;9.55;;;4.97;;
54454;SDS011;40364;52.270;10.546;2023-05-07T10:47:03;6.13;;;4.45;;
54454;SDS011;40364;52.270;10.546;2023-05-07T10:49:33;5.95;;;4.20;;
54454;SDS011;40364;52.270;10.546;2023-05-07T10:54:42;6.15;;;4.55;;
54454;SDS011;40364;52.270;10.546;2023-05-07T11:00:02;5.00;;;3.95;;
54454;SDS011;40364;52.270;10.546;2023-05-07T11:05:33;4.88;;;3.40;;
54454;SDS011;40364;52.270;10.546;2023-05-07T11:08:00;6.63;;;3.50;;
54454;SDS011;40364;52.270;10.546;2023-05-07T11:13:17;5.57;;;3.53;;
54454;SDS011;40364;52.270;10.546;2023-05-07T11:15:46;3.75;;;3.13;;
54454;SDS011;40364;52.270;10.546;2023-05-07T11:18:14;4.03;;;2.67;;
54454;SDS011;40364;52.270;10.546;2023-05-07T11:20:49;4.95;;;3.00;;
54454;SDS011;40364;52.270;10.546;2023-05-07T11:26:21;3.30;;;2.55;;
54454;SDS011;40364;52.270;10.546;2023-05-07T11:28:48;4.22;;;3.13;;
54454;SDS011;40364;52.270;10.546;2023-05-07T11:31:20;6.78;;;2.72;;
54454;SDS011;40364;52.270;10.546;2023-05-07T11:33:48;3.85;;;2.97;;
54454;SDS011;40364;52.270;10.546;2023-05-07T11:36:15;5.10;;;2.95;;
54454;SDS011;40364;52.270;10.546;2023-05-07T11:38:42;3.88;;;3.15;;
54454;SDS011;40364;52.270;10.546;2023-05-07T11:41:09;3.95;;;3.30;;
54454;SDS011;40364;52.270;10.546;2023-05-07T11:43:35;3.75;;;3.35;;
54454;SDS011;40364;52.270;10.546;2023-05-07T11:46:06;4.32;;;2.90;;
54454;SDS011;40364;52.270;10.546;2023-05-07T11:48:35;4.55;;;3.38;;
54454;SDS011;40364;52.270;10.546;2023-05-07T11:51:03;5.03;;;3.30;;
54454;SDS011;40364;52.270;10.546;2023-05-07T11:53:38;4.97;;;3.45;;
54454;SDS011;40364;52.270;10.546;2023-05-07T11:56:06;7.47;;;3.90;;
54454;SDS011;40364;52.270;10.546;2023-05-07T11:58:33;6.10;;;3.90;;
54454;SDS011;40364;52.270;10.546;2023-05-07T12:01:00;5.60;;;3.30;;
54454;SDS011;40364;52.270;10.546;2023-05-07T12:03:26;6.60;;;3.95;;
54454;SDS011;40364;52.270;10.546;2023-05-07T12:05:54;4.40;;;3.47;;
54454;SDS011;40364;52.270;10.546;2023-05-07T12:08:21;3.35;;;2.97;;
54454;SDS011;40364;52.270;10.546;2023-05-07T12:10:48;4.38;;;3.42;;
54454;SDS011;40364;52.270;10.546;2023-05-07T12:13:16;5.13;;;3.83;;
54454;SDS011;40364;52.270;10.546;2023-05-07T12:15:43;7.72;;;3.78;;
54454;SDS011;40364;52.270;10.546;2023-05-07T12:18:10;4.32;;;3.45;;
54454;SDS011;40364;52.270;10.546;2023-05-07T12:20:37;6.90;;;4.28;;
54454;SDS011;40364;52.270;10.546;2023-05-07T12:23:06;6.80;;;4.90;;
54454;SDS011;40364;52.270;10.546;2023-05-07T12:25:34;4.72;;;3.70;;
54454;SDS011;40364;52.270;10.546;2023-05-07T12:28:01;6.88;;;3.95;;
54454;SDS011;40364;52.270;10.546;2023-05-07T12:30:29;6.25;;;4.50;;
54454;SDS011;40364;52.270;10.546;2023-05-07T12:32:56;5.43;;;4.03;;
54454;SDS011;40364;52.270;10.546;2023-05-07T12:35:26;5.10;;;3.95;;
54454;SDS011;40364;52.270;10.546;2023-05-07T12:37:56;7.97;;;5.13;;
54454;SDS011;40364;52.270;10.546;2023-05-07T12:40:34;5.75;;;4.35;;
54454;SDS011;40364;52.270;10.546;2023-05-07T12:43:02;6.05;;;4.28;;
54454;SDS011;40364;52.270;10.546;2023-05-07T12:45:28;7.05;;;4.57;;
54454;SDS011;40364;52.270;10.546;2023-05-07T12:47:55;6.35;;;4.45;;
54454;SDS011;40364;52.270;10.546;2023-05-07T12:50:30;5.13;;;3.88;;
54454;SDS011;40364;52.270;10.546;2023-05-07T12:52:58;5.55;;;3.78;;
54454;SDS011;40364;52.270;10.546;2023-05-07T12:55:26;6.47;;;4.63;;
54454;SDS011;40364;52.270;10.546;2023-05-07T12:58:00;6.70;;;3.72;;
54454;SDS011;40364;52.270;10.546;2023-05-07T13:00:34;5.95;;;4.25;;
54454;SDS011;40364;52.270;10.546;2023-05-07T13:03:01;6.95;;;3.97;;
54454;SDS011;40364;52.270;10.546;2023-05-07T13:05:34;5.57;;;3.75;;
54454;SDS011;40364;52.270;10.546;2023-05-07T13:08:03;7.28;;;3.88;;
54454;SDS011;40364;52.270;10.546;2023-05-07T13:10:31;6.47;;;4.10;;
54454;SDS011;40364;52.270;10.546;2023-05-07T13:12:59;6.45;;;3.58;;
54454;SDS011;40364;52.270;10.546;2023-05-07T13:15:25;8.70;;;4.10;;
54454;SDS011;40364;52.270;10.546;2023-05-07T13:17:52;5.75;;;4.20;;
54454;SDS011;40364;52.270;10.546;2023-05-07T13:20:18;5.60;;;3.97;;
54454;SDS011;40364;52.270;10.546;2023-05-07T13:22:45;5.93;;;4.00;;
54454;SDS011;40364;52.270;10.546;2023-05-07T13:25:12;5.63;;;3.20;;
54454;SDS011;40364;52.270;10.546;2023-05-07T13:27:40;4.85;;;3.15;;
54454;SDS011;40364;52.270;10.546;2023-05-07T13:30:07;5.63;;;3.10;;
54454;SDS011;40364;52.270;10.546;2023-05-07T13:32:33;4.03;;;3.13;;
54454;SDS011;40364;52.270;10.546;2023-05-07T13:35:01;5.38;;;3.13;;
54454;SDS011;40364;52.270;10.546;2023-05-07T13:37:27;4.72;;;3.72;;
54454;SDS011;40364;52.270;10.546;2023-05-07T13:39:54;3.60;;;3.13;;
54454;SDS011;40364;52.270;10.546;2023-05-07T13:42:20;4.35;;;3.30;;
54454;SDS011;40364;52.270;10.546;2023-05-07T13:44:48;3.97;;;3.28;;
54454;SDS011;40364;52.270;10.546;2023-05-07T13:47:15;5.35;;;3.03;;
54454;SDS011;40364;52.270;10.546;2023-05-07T13:49:41;7.70;;;3.25;;
54454;SDS011;40364;52.270;10.546;2023-05-07T13:52:08;7.10;;;3.67;;
54454;SDS011;40364;52.270;10.546;2023-05-07T13:54:35;3.95;;;3.38;;
54454;SDS011;40364;52.270;10.546;2023-05-07T13:57:02;4.57;;;3.45;;
54454;SDS011;40364;52.270;10.546;2023-05-07T13:59:28;4.88;;;3.45;;
54454;SDS011;40364;52.270;10.546;2023-05-07T14:01:56;4.50;;;3.45;;
54454;SDS011;40364;52.270;10.546;2023-05-07T14:04:23;3.88;;;2.75;;
54454;SDS011;40364;52.270;10.546;2023-05-07T14:06:50;3.58;;;2.90;;
54454;SDS011;40364;52.270;10.546;2023-05-07T14:09:17;4.65;;;3.50;;
54454;SDS011;40364;52.270;10.546;2023-05-07T14:11:43;6.25;;;3.33;;
54454;SDS011;40364;52.270;10.546;2023-05-07T14:14:12;7.00;;;3.90;;
54454;SDS011;40364;52.270;10.546;2023-05-07T14:16:39;6.40;;;3.00;;
54454;SDS011;40364;52.270;10.546;2023-05-07T14:19:07;4.85;;;3.55;;
54454;SDS011;40364;52.270;10.546;2023-05-07T14:21:33;5.35;;;3.00;;
54454;SDS011;40364;52.270;10.546;2023-05-07T14:24:00;3.47;;;2.75;;
54454;SDS011;40364;52.270;10.546;2023-05-07T14:26:26;4.55;;;3.20;;
54454;SDS011;40364;52.270;10.546;2023-05-07T14:28:53;4.15;;;3.30;;
54454;SDS011;40364;52.270;10.546;2023-05-07T14:31:22;4.13;;;3.20;;
54454;SDS011;40364;52.270;10.546;2023-05-07T14:33:49;3.85;;;3.20;;
54454;SDS011;40364;52.270;10.546;2023-05-07T14:36:17;7.65;;;3.53;;
54454;SDS011;40364;52.270;10.546;2023-05-07T14:38:45;5.10;;;3.30;;
54454;SDS011;40364;52.270;10.546;2023-05-07T14:41:11;4.72;;;3.72;;
54454;SDS011;40364;52.270;10.546;2023-05-07T14:43:38;4.93;;;3.65;;
54454;SDS011;40364;52.270;10.546;2023-05-07T14:46:04;7.03;;;4.00;;
54454;SDS011;40364;52.270;10.546;2023-05-07T14:48:31;5.55;;;4.10;;